sensor_id;sensor_type;location;lat;lon;timestamp;temperature;humidity
12761;DHT22;6444;49.742;6.114;2023-03-01T00:00:41;-0.20;99.90
12761;DHT22;6444;49.742;6.114;2023-03-01T00:03:08;-0.20;99.90
12761;DHT22;6444;49.742;6.114;2023-03-01T00:05:34;0.00;99.90
12761;DHT22;6444;49.742;6.114;2023-03-01T00:08:01;-0.50;99.90
12761;DHT22;6444;49.742;6.114;2023-03-01T00:10:28;-0.80;99.90
12761;DHT22;6444;49.742;6.114;2023-03-01T00:12:55;-0.80;99.90
12761;DHT22;6444;49.742;6.114;2023-03-01T00:15:22;-0.80;99.90
12761;DHT22;6444;49.742;6.114;2023-03-01T00:17:48;-0.50;99.90
12761;DHT22;6444;49.742;6.114;2023-03-01T00:20:15;-0.40;99.90
12761;DHT22;6444;49.742;6.114;2023-03-01T00:22:42;-1.30;99.90
12761;DHT22;6444;49.742;6.114;2023-03-01T00:25:09;-0.10;99.90
12761;DHT22;6444;49.742;6.114;2023-03-01T00:27:36;-0.10;99.90
12761;DHT22;6444;49.742;6.114;2023-03-01T00:30:02;0.10;99.90
12761;DHT22;6444;49.742;6.114;2023-03-01T00:32:29;0.10;99.90
12761;DHT22;6444;49.742;6.114;2023-03-01T00:34:55;-0.10;99.90
12761;DHT22;6444;49.742;6.114;2023-03-01T00:37:22;0.20;99.90
12761;DHT22;6444;49.742;6.114;2023-03-01T00:39:50;0.10;99.90
12761;DHT22;6444;49.742;6.114;2023-03-01T00:42:16;0.10;99.90
12761;DHT22;6444;49.742;6.114;2023-03-01T00:44:43;0.30;99.90
12761;DHT22;6444;49.742;6.114;2023-03-01T00:47:09;0.50;99.90
12761;DHT22;6444;49.742;6.114;2023-03-01T00:49:37;-0.20;99.90
12761;DHT22;6444;49.742;6.114;2023-03-01T00:52:03;-0.20;99.90
12761;DHT22;6444;49.742;6.114;2023-03-01T00:54:30;-0.10;99.90
12761;DHT22;6444;49.742;6.114;2023-03-01T00:56:57;0.00;99.90
12761;DHT22;6444;49.742;6.114;2023-03-01T00:59:23;-0.10;99.90
12761;DHT22;6444;49.742;6.114;2023-03-01T01:01:50;0.10;99.90
12761;DHT22;6444;49.742;6.114;2023-03-01T01:04:17;0.10;99.90
12761;DHT22;6444;49.742;6.114;2023-03-01T01:06:47;0.30;99.90
12761;DHT22;6444;49.742;6.114;2023-03-01T01:09:14;0.30;99.90
12761;DHT22;6444;49.742;6.114;2023-03-01T01:11:40;0.40;99.90
12761;DHT22;6444;49.742;6.114;2023-03-01T01:14:07;0.40;99.90
12761;DHT22;6444;49.742;6.114;2023-03-01T01:16:33;-0.30;99.90
12761;DHT22;6444;49.742;6.114;2023-03-01T01:19:00;-0.20;99.90
12761;DHT22;6444;49.742;6.114;2023-03-01T01:21:26;0.10;99.90
12761;DHT22;6444;49.742;6.114;2023-03-01T01:23:53;0.10;99.90
12761;DHT22;6444;49.742;6.114;2023-03-01T01:26:21;0.30;99.90
12761;DHT22;6444;49.742;6.114;2023-03-01T01:28:46;0.30;99.90
12761;DHT22;6444;49.742;6.114;2023-03-01T01:31:13;0.50;99.90
12761;DHT22;6444;49.742;6.114;2023-03-01T01:33:40;0.60;99.90
12761;DHT22;6444;49.742;6.114;2023-03-01T01:36:06;-0.10;99.90
12761;DHT22;6444;49.742;6.114;2023-03-01T01:38:33;-0.10;99.90
12761;DHT22;6444;49.742;6.114;2023-03-01T01:40:59;-0.20;99.90
12761;DHT22;6444;49.742;6.114;2023-03-01T01:43:28;0.10;99.90
12761;DHT22;6444;49.742;6.114;2023-03-01T01:45:57;0.10;99.90
12761;DHT22;6444;49.742;6.114;2023-03-01T01:48:23;0.00;99.90
12761;DHT22;6444;49.742;6.114;2023-03-01T01:50:59;-0.20;99.90
12761;DHT22;6444;49.742;6.114;2023-03-01T01:53:24;0.10;99.90
12761;DHT22;6444;49.742;6.114;2023-03-01T01:55:54;0.00;99.90
12761;DHT22;6444;49.742;6.114;2023-03-01T01:58:23;0.20;99.90
12761;DHT22;6444;49.742;6.114;2023-03-01T02:00:50;0.40;99.90
12761;DHT22;6444;49.742;6.114;2023-03-01T02:03:18;0.40;99.90
12761;DHT22;6444;49.742;6.114;2023-03-01T02:08:16;-0.40;99.90
12761;DHT22;6444;49.742;6.114;2023-03-01T02:10:43;-1.40;99.90
12761;DHT22;6444;49.742;6.114;2023-03-01T02:13:10;-1.50;99.90
12761;DHT22;6444;49.742;6.114;2023-03-01T02:15:37;-1.40;99.90
12761;DHT22;6444;49.742;6.114;2023-03-01T02:18:04;-0.90;99.90
12761;DHT22;6444;49.742;6.114;2023-03-01T02:23:02;-0.10;99.90
12761;DHT22;6444;49.742;6.114;2023-03-01T02:30:44;-0.30;99.90
12761;DHT22;6444;49.742;6.114;2023-03-01T02:33:28;-0.70;99.90
12761;DHT22;6444;49.742;6.114;2023-03-01T02:35:55;-0.70;99.90
12761;DHT22;6444;49.742;6.114;2023-03-01T02:38:21;-0.60;99.90
12761;DHT22;6444;49.742;6.114;2023-03-01T02:40:48;-0.80;99.90
12761;DHT22;6444;49.742;6.114;2023-03-01T02:43:15;-0.70;99.90
12761;DHT22;6444;49.742;6.114;2023-03-01T02:45:50;-1.10;99.90
12761;DHT22;6444;49.742;6.114;2023-03-01T02:48:17;-0.60;99.90
12761;DHT22;6444;49.742;6.114;2023-03-01T02:50:57;-0.60;99.90
12761;DHT22;6444;49.742;6.114;2023-03-01T02:54:10;-0.20;99.90
12761;DHT22;6444;49.742;6.114;2023-03-01T02:55:49;0.10;99.90
12761;DHT22;6444;49.742;6.114;2023-03-01T02:58:15;0.10;99.90
12761;DHT22;6444;49.742;6.114;2023-03-01T03:00:42;0.30;99.90
12761;DHT22;6444;49.742;6.114;2023-03-01T03:03:08;0.30;99.90
12761;DHT22;6444;49.742;6.114;2023-03-01T03:05:35;0.20;99.90
12761;DHT22;6444;49.742;6.114;2023-03-01T03:08:02;0.00;99.90
12761;DHT22;6444;49.742;6.114;2023-03-01T03:10:30;0.30;99.90
12761;DHT22;6444;49.742;6.114;2023-03-01T03:13:02;-0.10;99.90
12761;DHT22;6444;49.742;6.114;2023-03-01T03:15:27;0.10;99.90
12761;DHT22;6444;49.742;6.114;2023-03-01T03:17:54;-0.20;99.90
12761;DHT22;6444;49.742;6.114;2023-03-01T03:20:21;-0.50;99.90
12761;DHT22;6444;49.742;6.114;2023-03-01T03:22:48;-0.10;99.90
12761;DHT22;6444;49.742;6.114;2023-03-01T03:25:14;0.20;99.90
12761;DHT22;6444;49.742;6.114;2023-03-01T03:27:41;0.40;99.90
12761;DHT22;6444;49.742;6.114;2023-03-01T03:30:07;0.20;99.90
12761;DHT22;6444;49.742;6.114;2023-03-01T03:32:33;0.20;99.90
12761;DHT22;6444;49.742;6.114;2023-03-01T03:35:00;0.20;99.90
12761;DHT22;6444;49.742;6.114;2023-03-01T03:37:27;-0.10;99.90
12761;DHT22;6444;49.742;6.114;2023-03-01T03:40:11;-0.90;99.90
12761;DHT22;6444;49.742;6.114;2023-03-01T03:42:38;-1.20;99.90
12761;DHT22;6444;49.742;6.114;2023-03-01T03:45:05;-0.60;99.90
12761;DHT22;6444;49.742;6.114;2023-03-01T03:47:31;-0.30;99.90
12761;DHT22;6444;49.742;6.114;2023-03-01T03:49:58;0.10;99.90
12761;DHT22;6444;49.742;6.114;2023-03-01T03:52:25;0.20;99.90
12761;DHT22;6444;49.742;6.114;2023-03-01T03:54:51;0.00;99.90
12761;DHT22;6444;49.742;6.114;2023-03-01T03:57:19;0.10;99.90
12761;DHT22;6444;49.742;6.114;2023-03-01T03:59:45;0.10;99.90
12761;DHT22;6444;49.742;6.114;2023-03-01T04:02:12;0.20;99.90
12761;DHT22;6444;49.742;6.114;2023-03-01T04:04:39;-0.20;99.90
12761;DHT22;6444;49.742;6.114;2023-03-01T04:07:05;0.00;99.90
12761;DHT22;6444;49.742;6.114;2023-03-01T04:09:33;0.40;99.90
12761;DHT22;6444;49.742;6.114;2023-03-01T04:11:59;0.40;99.90
12761;DHT22;6444;49.742;6.114;2023-03-01T04:14:26;0.60;99.90
12761;DHT22;6444;49.742;6.114;2023-03-01T04:16:52;0.50;99.90
12761;DHT22;6444;49.742;6.114;2023-03-01T04:19:19;0.30;99.90
12761;DHT22;6444;49.742;6.114;2023-03-01T04:21:46;0.30;99.90
12761;DHT22;6444;49.742;6.114;2023-03-01T04:24:13;0.60;99.90
12761;DHT22;6444;49.742;6.114;2023-03-01T04:26:40;0.60;99.90
12761;DHT22;6444;49.742;6.114;2023-03-01T04:29:06;0.10;99.90
12761;DHT22;6444;49.742;6.114;2023-03-01T04:31:33;-0.30;99.90
12761;DHT22;6444;49.742;6.114;2023-03-01T04:34:00;0.30;99.90
12761;DHT22;6444;49.742;6.114;2023-03-01T04:36:27;0.30;99.90
12761;DHT22;6444;49.742;6.114;2023-03-01T04:38:54;0.50;99.90
12761;DHT22;6444;49.742;6.114;2023-03-01T04:41:22;0.60;99.90
12761;DHT22;6444;49.742;6.114;2023-03-01T04:43:47;0.80;99.90
12761;DHT22;6444;49.742;6.114;2023-03-01T04:46:16;0.90;99.90
12761;DHT22;6444;49.742;6.114;2023-03-01T04:48:42;0.90;99.90
12761;DHT22;6444;49.742;6.114;2023-03-01T04:51:08;1.00;99.90
12761;DHT22;6444;49.742;6.114;2023-03-01T04:53:35;0.90;99.90
12761;DHT22;6444;49.742;6.114;2023-03-01T04:56:01;0.60;99.90
12761;DHT22;6444;49.742;6.114;2023-03-01T04:58:28;0.50;99.90
12761;DHT22;6444;49.742;6.114;2023-03-01T05:00:54;0.40;99.90
12761;DHT22;6444;49.742;6.114;2023-03-01T05:03:21;0.60;99.90
12761;DHT22;6444;49.742;6.114;2023-03-01T05:05:48;0.90;99.90
12761;DHT22;6444;49.742;6.114;2023-03-01T05:08:14;1.10;99.90
12761;DHT22;6444;49.742;6.114;2023-03-01T05:10:45;1.20;99.90
12761;DHT22;6444;49.742;6.114;2023-03-01T05:13:10;1.00;99.90
12761;DHT22;6444;49.742;6.114;2023-03-01T05:15:37;0.90;99.90
12761;DHT22;6444;49.742;6.114;2023-03-01T05:18:03;0.80;99.90
12761;DHT22;6444;49.742;6.114;2023-03-01T05:20:30;0.90;99.90
12761;DHT22;6444;49.742;6.114;2023-03-01T05:22:57;0.60;99.90
12761;DHT22;6444;49.742;6.114;2023-03-01T05:25:23;0.30;99.90
12761;DHT22;6444;49.742;6.114;2023-03-01T05:27:51;0.60;99.90
12761;DHT22;6444;49.742;6.114;2023-03-01T05:30:17;0.50;99.90
12761;DHT22;6444;49.742;6.114;2023-03-01T05:32:48;0.50;99.90
12761;DHT22;6444;49.742;6.114;2023-03-01T05:35:14;-0.50;99.90
12761;DHT22;6444;49.742;6.114;2023-03-01T05:37:41;-0.20;99.90
12761;DHT22;6444;49.742;6.114;2023-03-01T05:40:07;-0.60;99.90
12761;DHT22;6444;49.742;6.114;2023-03-01T05:42:33;-1.00;99.90
12761;DHT22;6444;49.742;6.114;2023-03-01T05:45:00;-0.50;99.90
12761;DHT22;6444;49.742;6.114;2023-03-01T05:47:27;-0.10;99.90
12761;DHT22;6444;49.742;6.114;2023-03-01T05:49:53;0.00;99.90
12761;DHT22;6444;49.742;6.114;2023-03-01T05:52:21;-0.80;99.90
12761;DHT22;6444;49.742;6.114;2023-03-01T05:54:47;-0.80;99.90
12761;DHT22;6444;49.742;6.114;2023-03-01T05:57:14;-0.20;99.90
12761;DHT22;6444;49.742;6.114;2023-03-01T05:59:41;-0.10;99.90
12761;DHT22;6444;49.742;6.114;2023-03-01T06:02:07;0.20;99.90
12761;DHT22;6444;49.742;6.114;2023-03-01T06:04:34;0.30;99.90
12761;DHT22;6444;49.742;6.114;2023-03-01T06:07:01;0.30;99.90
12761;DHT22;6444;49.742;6.114;2023-03-01T06:09:27;0.40;99.90
12761;DHT22;6444;49.742;6.114;2023-03-01T06:11:54;-0.30;99.90
12761;DHT22;6444;49.742;6.114;2023-03-01T06:14:20;-0.30;99.90
12761;DHT22;6444;49.742;6.114;2023-03-01T06:16:47;0.20;99.90
12761;DHT22;6444;49.742;6.114;2023-03-01T06:19:14;0.60;99.90
12761;DHT22;6444;49.742;6.114;2023-03-01T06:21:41;0.60;99.90
12761;DHT22;6444;49.742;6.114;2023-03-01T06:24:08;0.70;99.90
12761;DHT22;6444;49.742;6.114;2023-03-01T06:26:34;0.70;99.90
12761;DHT22;6444;49.742;6.114;2023-03-01T06:29:01;0.70;99.90
12761;DHT22;6444;49.742;6.114;2023-03-01T06:31:28;0.80;99.90
12761;DHT22;6444;49.742;6.114;2023-03-01T06:33:54;0.40;99.90
12761;DHT22;6444;49.742;6.114;2023-03-01T06:36:21;0.30;99.90
12761;DHT22;6444;49.742;6.114;2023-03-01T06:38:47;0.40;99.90
12761;DHT22;6444;49.742;6.114;2023-03-01T06:41:14;0.40;99.90
12761;DHT22;6444;49.742;6.114;2023-03-01T06:43:41;0.40;99.90
12761;DHT22;6444;49.742;6.114;2023-03-01T06:46:07;0.20;99.90
12761;DHT22;6444;49.742;6.114;2023-03-01T06:48:34;0.40;99.90
12761;DHT22;6444;49.742;6.114;2023-03-01T06:51:01;0.70;99.90
12761;DHT22;6444;49.742;6.114;2023-03-01T06:53:28;0.20;99.90
12761;DHT22;6444;49.742;6.114;2023-03-01T06:55:55;0.90;99.90
12761;DHT22;6444;49.742;6.114;2023-03-01T06:58:21;0.90;99.90
12761;DHT22;6444;49.742;6.114;2023-03-01T07:00:48;1.10;99.90
12761;DHT22;6444;49.742;6.114;2023-03-01T07:03:14;1.30;99.90
12761;DHT22;6444;49.742;6.114;2023-03-01T07:05:41;1.40;99.90
12761;DHT22;6444;49.742;6.114;2023-03-01T07:08:08;1.60;99.90
12761;DHT22;6444;49.742;6.114;2023-03-01T07:10:34;1.90;99.90
12761;DHT22;6444;49.742;6.114;2023-03-01T07:13:01;2.20;99.90
12761;DHT22;6444;49.742;6.114;2023-03-01T07:15:28;2.50;99.90
12761;DHT22;6444;49.742;6.114;2023-03-01T07:17:55;2.60;99.90
12761;DHT22;6444;49.742;6.114;2023-03-01T07:20:21;2.90;99.90
12761;DHT22;6444;49.742;6.114;2023-03-01T07:22:51;2.90;99.90
12761;DHT22;6444;49.742;6.114;2023-03-01T07:25:17;2.70;99.90
12761;DHT22;6444;49.742;6.114;2023-03-01T07:27:43;3.00;99.90
12761;DHT22;6444;49.742;6.114;2023-03-01T07:30:10;2.70;99.90
12761;DHT22;6444;49.742;6.114;2023-03-01T07:32:37;2.50;99.90
12761;DHT22;6444;49.742;6.114;2023-03-01T07:35:03;2.90;99.90
12761;DHT22;6444;49.742;6.114;2023-03-01T07:37:30;3.00;99.90
12761;DHT22;6444;49.742;6.114;2023-03-01T07:39:57;3.50;99.90
12761;DHT22;6444;49.742;6.114;2023-03-01T07:42:23;3.90;99.90
12761;DHT22;6444;49.742;6.114;2023-03-01T07:44:50;4.30;99.90
12761;DHT22;6444;49.742;6.114;2023-03-01T07:47:17;4.60;99.90
12761;DHT22;6444;49.742;6.114;2023-03-01T07:49:43;4.60;99.90
12761;DHT22;6444;49.742;6.114;2023-03-01T07:52:10;4.70;99.90
12761;DHT22;6444;49.742;6.114;2023-03-01T07:54:36;4.70;99.90
12761;DHT22;6444;49.742;6.114;2023-03-01T07:57:03;5.00;99.90
12761;DHT22;6444;49.742;6.114;2023-03-01T07:59:30;5.50;99.90
12761;DHT22;6444;49.742;6.114;2023-03-01T08:01:57;5.50;99.90
12761;DHT22;6444;49.742;6.114;2023-03-01T08:04:24;5.70;99.90
12761;DHT22;6444;49.742;6.114;2023-03-01T08:06:54;5.90;99.90
12761;DHT22;6444;49.742;6.114;2023-03-01T08:09:20;6.00;99.80
12761;DHT22;6444;49.742;6.114;2023-03-01T08:11:46;6.20;99.70
12761;DHT22;6444;49.742;6.114;2023-03-01T08:14:13;6.40;99.90
12761;DHT22;6444;49.742;6.114;2023-03-01T08:16:39;7.10;98.70
12761;DHT22;6444;49.742;6.114;2023-03-01T08:19:07;7.90;99.00
12761;DHT22;6444;49.742;6.114;2023-03-01T08:21:33;8.80;98.70
12761;DHT22;6444;49.742;6.114;2023-03-01T08:23:59;9.40;96.10
12761;DHT22;6444;49.742;6.114;2023-03-01T08:26:27;8.70;97.80
12761;DHT22;6444;49.742;6.114;2023-03-01T08:28:53;8.70;97.80
12761;DHT22;6444;49.742;6.114;2023-03-01T08:31:23;9.00;95.90
12761;DHT22;6444;49.742;6.114;2023-03-01T08:33:50;8.70;95.90
12761;DHT22;6444;49.742;6.114;2023-03-01T08:36:16;8.90;97.30
12761;DHT22;6444;49.742;6.114;2023-03-01T08:38:42;9.20;96.10
12761;DHT22;6444;49.742;6.114;2023-03-01T08:41:09;9.80;97.00
12761;DHT22;6444;49.742;6.114;2023-03-01T08:43:36;10.40;95.60
12761;DHT22;6444;49.742;6.114;2023-03-01T08:46:02;10.20;93.40
12761;DHT22;6444;49.742;6.114;2023-03-01T08:48:29;9.70;93.50
12761;DHT22;6444;49.742;6.114;2023-03-01T08:50:55;7.10;94.20
12761;DHT22;6444;49.742;6.114;2023-03-01T08:53:22;5.50;96.90
12761;DHT22;6444;49.742;6.114;2023-03-01T08:55:49;6.00;97.60
12761;DHT22;6444;49.742;6.114;2023-03-01T08:58:15;5.20;96.60
12761;DHT22;6444;49.742;6.114;2023-03-01T09:00:42;4.20;98.80
12761;DHT22;6444;49.742;6.114;2023-03-01T09:03:09;4.30;98.60
12761;DHT22;6444;49.742;6.114;2023-03-01T09:05:35;4.60;99.50
12761;DHT22;6444;49.742;6.114;2023-03-01T09:08:02;4.60;97.90
12761;DHT22;6444;49.742;6.114;2023-03-01T09:10:28;3.90;99.90
12761;DHT22;6444;49.742;6.114;2023-03-01T09:12:55;4.60;99.90
12761;DHT22;6444;49.742;6.114;2023-03-01T09:15:22;4.70;99.40
12761;DHT22;6444;49.742;6.114;2023-03-01T09:17:48;5.10;98.00
12761;DHT22;6444;49.742;6.114;2023-03-01T09:20:15;4.60;99.10
12761;DHT22;6444;49.742;6.114;2023-03-01T09:22:42;3.80;99.60
12761;DHT22;6444;49.742;6.114;2023-03-01T09:25:08;3.50;99.70
12761;DHT22;6444;49.742;6.114;2023-03-01T09:27:35;4.00;99.90
12761;DHT22;6444;49.742;6.114;2023-03-01T09:30:02;3.90;99.90
12761;DHT22;6444;49.742;6.114;2023-03-01T09:32:30;3.50;99.70
12761;DHT22;6444;49.742;6.114;2023-03-01T09:34:55;3.20;99.90
12761;DHT22;6444;49.742;6.114;2023-03-01T09:37:28;4.30;99.90
12761;DHT22;6444;49.742;6.114;2023-03-01T09:39:54;4.90;98.90
12761;DHT22;6444;49.742;6.114;2023-03-01T09:42:21;4.60;99.10
12761;DHT22;6444;49.742;6.114;2023-03-01T09:45:02;3.60;99.50
12761;DHT22;6444;49.742;6.114;2023-03-01T09:47:29;3.40;99.90
12761;DHT22;6444;49.742;6.114;2023-03-01T09:50:12;3.40;99.90
12761;DHT22;6444;49.742;6.114;2023-03-01T09:52:39;3.30;99.90
12761;DHT22;6444;49.742;6.114;2023-03-01T09:55:08;3.80;99.90
12761;DHT22;6444;49.742;6.114;2023-03-01T10:00:16;4.20;99.70
12761;DHT22;6444;49.742;6.114;2023-03-01T10:02:56;4.20;99.70
12761;DHT22;6444;49.742;6.114;2023-03-01T10:10:39;3.90;99.50
12761;DHT22;6444;49.742;6.114;2023-03-01T10:13:10;4.40;99.90
12761;DHT22;6444;49.742;6.114;2023-03-01T10:15:36;5.50;99.90
12761;DHT22;6444;49.742;6.114;2023-03-01T10:18:11;7.00;98.90
12761;DHT22;6444;49.742;6.114;2023-03-01T10:20:42;8.30;98.20
12761;DHT22;6444;49.742;6.114;2023-03-01T10:23:00;8.80;97.30
12761;DHT22;6444;49.742;6.114;2023-03-01T10:28:25;9.20;94.80
12761;DHT22;6444;49.742;6.114;2023-03-01T10:30:50;8.20;95.00
12761;DHT22;6444;49.742;6.114;2023-03-01T10:33:29;8.30;95.60
12761;DHT22;6444;49.742;6.114;2023-03-01T10:35:55;8.30;94.90
12761;DHT22;6444;49.742;6.114;2023-03-01T10:38:21;7.50;95.40
12761;DHT22;6444;49.742;6.114;2023-03-01T10:40:54;6.90;96.20
12761;DHT22;6444;49.742;6.114;2023-03-01T10:43:20;7.10;97.80
12761;DHT22;6444;49.742;6.114;2023-03-01T10:45:47;8.00;96.20
12761;DHT22;6444;49.742;6.114;2023-03-01T10:48:17;7.60;95.20
12761;DHT22;6444;49.742;6.114;2023-03-01T10:50:46;8.20;96.00
12761;DHT22;6444;49.742;6.114;2023-03-01T10:56:07;8.30;95.10
12761;DHT22;6444;49.742;6.114;2023-03-01T10:58:33;8.20;95.60
12761;DHT22;6444;49.742;6.114;2023-03-01T11:03:44;10.30;93.70
12761;DHT22;6444;49.742;6.114;2023-03-01T11:13:47;7.00;95.90
12761;DHT22;6444;49.742;6.114;2023-03-01T11:16:10;6.70;95.80
12761;DHT22;6444;49.742;6.114;2023-03-01T11:18:35;6.30;95.70
12761;DHT22;6444;49.742;6.114;2023-03-01T11:21:02;5.90;96.70
12761;DHT22;6444;49.742;6.114;2023-03-01T11:23:28;6.20;96.80
12761;DHT22;6444;49.742;6.114;2023-03-01T11:25:55;6.20;96.60
12761;DHT22;6444;49.742;6.114;2023-03-01T11:28:22;5.60;97.30
12761;DHT22;6444;49.742;6.114;2023-03-01T11:31:02;5.60;97.20
12761;DHT22;6444;49.742;6.114;2023-03-01T11:33:56;6.10;97.30
12761;DHT22;6444;49.742;6.114;2023-03-01T11:41:45;6.70;96.90
12761;DHT22;6444;49.742;6.114;2023-03-01T11:44:16;6.00;96.70
12761;DHT22;6444;49.742;6.114;2023-03-01T11:49:38;5.70;98.90
12761;DHT22;6444;49.742;6.114;2023-03-01T11:55:07;6.20;97.60
12761;DHT22;6444;49.742;6.114;2023-03-01T12:00:21;6.00;98.10
12761;DHT22;6444;49.742;6.114;2023-03-01T12:08:30;5.40;98.30
12761;DHT22;6444;49.742;6.114;2023-03-01T12:16:32;5.90;98.50
12761;DHT22;6444;49.742;6.114;2023-03-01T12:22:04;6.40;96.90
12761;DHT22;6444;49.742;6.114;2023-03-01T12:24:36;6.00;97.30
12761;DHT22;6444;49.742;6.114;2023-03-01T12:29:53;6.20;97.90
12761;DHT22;6444;49.742;6.114;2023-03-01T12:32:33;6.70;96.90
12761;DHT22;6444;49.742;6.114;2023-03-01T12:35:04;7.10;97.30
12761;DHT22;6444;49.742;6.114;2023-03-01T12:37:42;7.90;96.90
12761;DHT22;6444;49.742;6.114;2023-03-01T12:40:22;7.60;95.80
12761;DHT22;6444;49.742;6.114;2023-03-01T12:48:28;6.20;97.70
12761;DHT22;6444;49.742;6.114;2023-03-01T12:50:54;6.50;98.20
12761;DHT22;6444;49.742;6.114;2023-03-01T12:53:24;7.00;97.30
12761;DHT22;6444;49.742;6.114;2023-03-01T12:55:51;6.90;97.60
12761;DHT22;6444;49.742;6.114;2023-03-01T12:58:24;6.80;97.60
12761;DHT22;6444;49.742;6.114;2023-03-01T13:04:01;7.40;96.90
12761;DHT22;6444;49.742;6.114;2023-03-01T13:06:46;7.50;97.10
12761;DHT22;6444;49.742;6.114;2023-03-01T13:11:42;7.10;97.10
12761;DHT22;6444;49.742;6.114;2023-03-01T13:14:57;7.10;96.30
12761;DHT22;6444;49.742;6.114;2023-03-01T13:16:39;7.30;96.90
12761;DHT22;6444;49.742;6.114;2023-03-01T13:19:20;7.30;96.40
12761;DHT22;6444;49.742;6.114;2023-03-01T13:21:47;7.20;96.80
12761;DHT22;6444;49.742;6.114;2023-03-01T13:24:38;7.90;96.60
12761;DHT22;6444;49.742;6.114;2023-03-01T13:29:52;7.70;96.00
12761;DHT22;6444;49.742;6.114;2023-03-01T13:32:28;7.70;96.30
12761;DHT22;6444;49.742;6.114;2023-03-01T13:37:29;7.50;96.10
12761;DHT22;6444;49.742;6.114;2023-03-01T13:39:56;7.50;96.00
12761;DHT22;6444;49.742;6.114;2023-03-01T13:42:34;7.30;96.20
12761;DHT22;6444;49.742;6.114;2023-03-01T13:45:00;7.10;96.40
12761;DHT22;6444;49.742;6.114;2023-03-01T13:47:26;7.40;96.10
12761;DHT22;6444;49.742;6.114;2023-03-01T13:49:57;7.70;96.50
12761;DHT22;6444;49.742;6.114;2023-03-01T13:52:39;7.90;96.50
12761;DHT22;6444;49.742;6.114;2023-03-01T13:55:06;7.60;96.30
12761;DHT22;6444;49.742;6.114;2023-03-01T13:57:30;7.50;95.90
12761;DHT22;6444;49.742;6.114;2023-03-01T13:59:55;7.60;96.10
12761;DHT22;6444;49.742;6.114;2023-03-01T14:02:22;7.60;95.90
12761;DHT22;6444;49.742;6.114;2023-03-01T14:04:58;7.90;95.80
12761;DHT22;6444;49.742;6.114;2023-03-01T14:07:25;8.10;95.80
12761;DHT22;6444;49.742;6.114;2023-03-01T14:09:52;7.90;96.50
12761;DHT22;6444;49.742;6.114;2023-03-01T14:12:53;7.80;96.40
12761;DHT22;6444;49.742;6.114;2023-03-01T14:17:50;8.10;95.30
12761;DHT22;6444;49.742;6.114;2023-03-01T14:20:30;8.20;95.50
12761;DHT22;6444;49.742;6.114;2023-03-01T14:22:57;8.30;95.50
12761;DHT22;6444;49.742;6.114;2023-03-01T14:25:24;8.00;95.50
12761;DHT22;6444;49.742;6.114;2023-03-01T14:27:56;8.10;95.70
12761;DHT22;6444;49.742;6.114;2023-03-01T14:30:36;7.70;95.60
12761;DHT22;6444;49.742;6.114;2023-03-01T14:33:02;7.60;95.60
12761;DHT22;6444;49.742;6.114;2023-03-01T14:35:29;7.90;96.00
12761;DHT22;6444;49.742;6.114;2023-03-01T14:37:54;8.10;95.20
12761;DHT22;6444;49.742;6.114;2023-03-01T14:40:28;8.30;95.60
12761;DHT22;6444;49.742;6.114;2023-03-01T14:42:51;8.30;95.20
12761;DHT22;6444;49.742;6.114;2023-03-01T14:45:17;8.20;95.20
12761;DHT22;6444;49.742;6.114;2023-03-01T14:47:44;8.20;95.60
12761;DHT22;6444;49.742;6.114;2023-03-01T14:50:50;7.70;96.00
12761;DHT22;6444;49.742;6.114;2023-03-01T14:53:02;7.70;96.10
12761;DHT22;6444;49.742;6.114;2023-03-01T14:55:38;7.60;95.90
12761;DHT22;6444;49.742;6.114;2023-03-01T14:58:04;7.80;96.10
12761;DHT22;6444;49.742;6.114;2023-03-01T15:00:31;8.00;95.80
12761;DHT22;6444;49.742;6.114;2023-03-01T15:02:58;7.90;95.70
12761;DHT22;6444;49.742;6.114;2023-03-01T15:05:31;7.70;95.60
12761;DHT22;6444;49.742;6.114;2023-03-01T15:08:00;7.70;96.10
12761;DHT22;6444;49.742;6.114;2023-03-01T15:10:36;7.70;95.90
12761;DHT22;6444;49.742;6.114;2023-03-01T15:15:40;7.70;95.80
12761;DHT22;6444;49.742;6.114;2023-03-01T15:18:20;7.80;95.90
12761;DHT22;6444;49.742;6.114;2023-03-01T15:20:49;8.30;95.90
12761;DHT22;6444;49.742;6.114;2023-03-01T15:23:23;8.50;95.60
12761;DHT22;6444;49.742;6.114;2023-03-01T15:25:49;8.50;95.40
12761;DHT22;6444;49.742;6.114;2023-03-01T15:28:18;8.40;95.40
12761;DHT22;6444;49.742;6.114;2023-03-01T15:30:42;8.30;95.30
12761;DHT22;6444;49.742;6.114;2023-03-01T15:35:51;8.50;95.40
12761;DHT22;6444;49.742;6.114;2023-03-01T15:38:29;9.10;95.10
12761;DHT22;6444;49.742;6.114;2023-03-01T15:40:53;9.20;94.40
12761;DHT22;6444;49.742;6.114;2023-03-01T15:46:17;8.80;94.60
12761;DHT22;6444;49.742;6.114;2023-03-01T15:48:46;8.40;94.50
12761;DHT22;6444;49.742;6.114;2023-03-01T15:51:13;8.30;94.80
12761;DHT22;6444;49.742;6.114;2023-03-01T15:53:40;8.60;95.00
12761;DHT22;6444;49.742;6.114;2023-03-01T15:56:06;8.60;95.00
12761;DHT22;6444;49.742;6.114;2023-03-01T15:58:33;8.20;94.50
12761;DHT22;6444;49.742;6.114;2023-03-01T16:01:00;8.00;95.30
12761;DHT22;6444;49.742;6.114;2023-03-01T16:03:27;7.90;95.30
12761;DHT22;6444;49.742;6.114;2023-03-01T16:05:54;8.00;95.60
12761;DHT22;6444;49.742;6.114;2023-03-01T16:08:20;8.80;94.90
12761;DHT22;6444;49.742;6.114;2023-03-01T16:10:47;8.60;94.60
12761;DHT22;6444;49.742;6.114;2023-03-01T16:13:14;8.60;94.00
12761;DHT22;6444;49.742;6.114;2023-03-01T16:15:40;8.20;94.70
12761;DHT22;6444;49.742;6.114;2023-03-01T16:18:07;8.50;94.30
12761;DHT22;6444;49.742;6.114;2023-03-01T16:20:34;8.40;94.30
12761;DHT22;6444;49.742;6.114;2023-03-01T16:23:04;8.70;94.30
12761;DHT22;6444;49.742;6.114;2023-03-01T16:25:27;8.90;93.90
12761;DHT22;6444;49.742;6.114;2023-03-01T16:27:53;8.20;94.40
12761;DHT22;6444;49.742;6.114;2023-03-01T16:30:20;8.40;94.00
12761;DHT22;6444;49.742;6.114;2023-03-01T16:32:47;8.40;94.20
12761;DHT22;6444;49.742;6.114;2023-03-01T16:35:14;8.20;94.30
12761;DHT22;6444;49.742;6.114;2023-03-01T16:37:41;9.10;94.00
12761;DHT22;6444;49.742;6.114;2023-03-01T16:40:16;9.00;93.90
12761;DHT22;6444;49.742;6.114;2023-03-01T16:42:36;9.20;93.30
12761;DHT22;6444;49.742;6.114;2023-03-01T16:45:01;8.80;93.50
12761;DHT22;6444;49.742;6.114;2023-03-01T16:47:27;8.10;94.00
12761;DHT22;6444;49.742;6.114;2023-03-01T16:49:55;7.60;94.80
12761;DHT22;6444;49.742;6.114;2023-03-01T16:52:22;7.60;94.80
12761;DHT22;6444;49.742;6.114;2023-03-01T16:54:48;7.90;94.10
12761;DHT22;6444;49.742;6.114;2023-03-01T16:57:15;7.50;94.20
12761;DHT22;6444;49.742;6.114;2023-03-01T16:59:41;8.00;94.20
12761;DHT22;6444;49.742;6.114;2023-03-01T17:02:14;8.10;94.00
12761;DHT22;6444;49.742;6.114;2023-03-01T17:04:38;7.60;94.30
12761;DHT22;6444;49.742;6.114;2023-03-01T17:07:04;7.80;94.40
12761;DHT22;6444;49.742;6.114;2023-03-01T17:09:34;7.40;94.00
12761;DHT22;6444;49.742;6.114;2023-03-01T17:11:57;7.30;94.70
12761;DHT22;6444;49.742;6.114;2023-03-01T17:14:24;7.50;94.10
12761;DHT22;6444;49.742;6.114;2023-03-01T17:16:51;6.90;94.30
12761;DHT22;6444;49.742;6.114;2023-03-01T17:19:17;6.90;94.90
12761;DHT22;6444;49.742;6.114;2023-03-01T17:21:44;7.90;94.20
12761;DHT22;6444;49.742;6.114;2023-03-01T17:24:11;8.60;93.60
12761;DHT22;6444;49.742;6.114;2023-03-01T17:26:38;8.40;93.50
12761;DHT22;6444;49.742;6.114;2023-03-01T17:29:04;8.30;93.40
12761;DHT22;6444;49.742;6.114;2023-03-01T17:31:31;8.60;93.50
12761;DHT22;6444;49.742;6.114;2023-03-01T17:33:58;8.30;94.10
12761;DHT22;6444;49.742;6.114;2023-03-01T17:36:24;8.30;94.50